Atlanta, MI

4:17 AM EST on March 01, 2015 (GMT -0500)
Otsego County | Change Station
CLOSE
Current Station
Airport
Location: Gaylord,
Elevation: 1325 ft
Nearby Weather Stations

Elev 1325 ft 45.01 °N, 84.70 °W | Updated 10 minutes ago

Mostly Cloudy
Mostly Cloudy
8 °F
Feels Like -2 °F
N
6
Wind Variable Wind from South

Today
High -- | Low -- °F
--% Chance of Precip.
Yesterday
High -- | Low -- °F
Precip. -- in
7:14 AM 6:23 PM
Waxing Gibbous, 84% visible
Pressure 30.31 in
Visibility 10.0 miles
Clouds Mostly Cloudy 2600 ft
Mostly Cloudy 9500 ft
Windchill -2 °F
Dew Point -1 °F
Humidity 67%
Rainfall 0.00 in
Snow Depth Not available.
UV 0 out of 12
Pollen .40 out of 12
Air Quality Not available.
Flu Activity Not available.
SPECI KGLR 010907Z AUTO 18005KT 10SM BKN026 BKN095 M13/M18 A3031 RMK AO2 T11331183

More Conditions Fewer Conditions

Pressure 30.31 in
Visibility 10.0 miles
Clouds Mostly Cloudy 2600 ft
Mostly Cloudy 9500 ft
Windchill -2 °F
Dew Point -1 °F
Humidity 67%
Rainfall 0.00 in
Snow Depth Not available.
UV 0 out of 12
Pollen .40 out of 12
Air Quality Not available.
Flu Activity Not available.
SPECI KGLR 010907Z AUTO 18005KT 10SM BKN026 BKN095 M13/M18 A3031 RMK AO2 T11331183

More Conditions Fewer Conditions

Nowcast | as of 4:00 am EST on March 1, 2015

At 5 am...mostly cloudy. Temperature 12. Light winds. At 7 am...mostly cloudy. Temperature 11. Light winds. At 9 am...mostly cloudy. Temperature 14. Light winds. At 11 am...mostly cloudy. Chance of snow showers. Temperature 19. Southwest winds 5 mph.

×

10-Day Weather Forecast

Almanac

Astronomy

Mar. 01, 2015 Rise Set
Actual Time
Civil Twilight
Nautical Twilight
Astronomical Twilight
Moon
Length of Visible Light
Length of Day
Tomorrow will be .
, % of the Moon is Illuminated

Today's Extremes

State Highs State Lows

Community

WunderPhotos

Upload Photos

1,801,350 photos uploaded!

WunderBlogs® & News

Nearby

Air Quality

  Air Quality AQ Index Pollutant
Not available.

Snow Depth

Station Depth Elevation

Earthquake Activity

City Distance Mag. Time & Date
Minimum magnitude displayed is 2.5.

Coastal Water Temperatures

Place Temperature

Nearby Weather Stations